ABB Return on Investment 2006-2019 | ABB

Current and historical return on investment (ROI) values for ABB (ABB) over the last 10 years.
ABB ROI - Return on Investment Historical Data
Date TTM Net Income LT Investments & Debt Return on Investment
2019-03-31 $2.19B $22.95B 10.17%
2018-12-31 $2.23B $21.12B 10.80%
2018-09-30 $1.93B $21.27B 9.26%
2018-06-30 $1.91B $20.84B 9.11%
2018-03-31 $1.83B $19.23B 8.71%
2017-12-31 $2.23B $22.03B 10.44%
2017-09-30 $3.47B $21.81B 16.71%
2017-06-30 $3.46B $20.79B 16.99%
2017-03-31 $3.23B $20.82B 16.11%
2016-12-31 $2.99B $19.70B 14.76%
2016-09-30 $2.66B $20.23B 12.92%
2016-06-30 $2.66B $19.51B 12.70%
2016-03-31 $2.97B $21.49B 13.85%
2015-12-31 $3.05B $20.97B 13.87%
2015-09-30 $3.75B $21.80B 16.48%
2015-06-30 $4.09B $21.65B 17.35%
2015-03-31 $4.18B $23.49B 17.00%
2014-12-31 $4.18B $24.13B 16.34%
2014-09-30 $3.95B $25.06B 15.07%
2014-06-30 $4.05B $25.75B 15.37%
2014-03-31 $4.19B $27.32B 16.13%
2013-12-31 $4.39B $26.78B 17.25%
2013-09-30 $4.43B $25.64B 17.72%
2013-06-30 $4.25B $24.17B 17.25%
2013-03-31 $4.06B $25.17B 16.71%
2012-12-31 $4.06B $24.98B 17.10%
2012-09-30 $4.32B $24.19B 19.29%
2012-06-30 $4.37B $22.89B 20.77%
2012-03-31 $4.70B $22.89B 23.46%
2011-12-31 $4.67B $19.57B 24.87%
2011-09-30 $4.52B $18.73B 25.09%
2011-06-30 $4.48B $18.99B 25.63%
2011-03-31 $4.12B $17.78B 24.42%
2010-12-31 $3.82B $16.60B 22.97%
2010-09-30 $3.64B $16.62B 21.87%
2010-06-30 $3.90B $16.52B 23.62%
2010-03-31 $3.97B $16.76B 24.49%
2009-12-31 $4.13B $16.65B 26.59%
2009-09-30 $3.79B $16.15B 25.58%
2009-06-30 $3.66B $15.34B 25.78%
2009-03-31 $4.06B $13.94B 28.82%
2008-12-31 $4.55B $13.78B 32.08%
2008-09-30 $5.24B $13.71B 37.37%
2008-06-30 $4.98B $14.93B 37.34%
2008-03-31 $4.56B $14.33B 37.70%
2007-12-31 $4.02B $13.10B 36.89%
2007-09-30 $3.63B $11.01B 36.54%
2007-06-30 $3.26B $9.92B 34.78%
2007-03-31 $2.88B $9.60B 31.98%
2006-12-31 $2.56B $9.20B 29.84%
2006-09-30 $2.29B $8.81B 28.21%
2006-06-30 $2.09B $8.47B 26.94%
2006-03-31 $1.81B $7.80B 24.29%
2005-12-31 $1.71B $7.42B 23.02%
Sector Industry Market Cap Revenue
Industrial Products Electrical Machinery $40.441B $27.662B
ABB Ltd, headquartered in Zurich, Switzerland, is engaged in providing power and automation technologies for its utility and industrial customers. The Company provides a range of products, systems, solutions and services that are designed to improve power grid reliability, increase industrial productivity and enhance energy efficiency. ABB is focused on power transmission, distribution and power-plant automation and serves electric, gas and water utilities, as well as industrial and commercial customers. Its Power Products division manufactures three categories of products: High-voltage Products, Medium-voltage Products and Transformers. The key technologies include high- and medium-voltage switchgear, circuit breakers for various current and voltage levels, power and distribution transformers, as well as sensors and products to automate and control electrical and other utility networks. ABB Ltd is structured into four regions: Europe, the Americas, Asia and the Middle East and Africa (MEA).
Stock Name Country Market Cap PE Ratio
Schneider Electric SE (SBGSY) France $47.519B 0.00
Emerson Electric (EMR) United States $40.374B 19.61
Eaton (ETN) Ireland $34.360B 14.66
Murata Manufacturing (MRAAY) Japan $28.353B 16.21
A O Smith (AOS) United States $7.556B 17.79
Regal Beloit (RBC) United States $3.459B 13.22
Rexnord (RXN) United States $3.033B 15.57
Enersys (ENS) United States $2.773B 13.10
II-VI (IIVI) United States $2.333B 20.87
ESCO Technologies (ESE) United States $2.136B 25.85
Franklin Electric (FELE) United States $2.098B 22.41
SPX FLOW (FLOW) United States $1.664B 16.51
AZZ (AZZ) United States $1.207B 21.28
Plug Power (PLUG) United States $0.562B 0.00
Powell Industries (POWL) United States $0.421B 607.83
Energous (WATT) United States $0.140B 0.00
Capstone Turbine (CPST) United States $0.056B 0.00
Pioneer Power Solutions (PPSI) United States $0.048B 3.94
CUI Global (CUI) United States $0.023B 0.00
American Electric Technologies (AETI) United States $0.010B 0.00
Ideal Power (IPWR) United States $0.005B 0.00
Energie Holdings (ELED) United States $0.001B 0.00
SmartHeat (HEAT) China $0.000B 0.00
JNS Holdings (JNSH) $0.000B 0.00
China Power Equipment (CPQQ) China $0.000B 0.00